createdAt,value
2023-04-16T00:03:05.408Z,101900.44
2023-04-16T00:06:06.130Z,101905.88
2023-04-16T00:09:07.503Z,101901.53
2023-04-16T00:12:08.143Z,101890.66
2023-04-16T00:15:09.216Z,101897.06
2023-04-16T00:18:10.163Z,101896.97
2023-04-16T00:21:11.185Z,101889.69
2023-04-16T00:24:12.204Z,101892.41
2023-04-16T00:27:13.349Z,101896.31
2023-04-16T00:30:14.133Z,101889.91
2023-04-16T00:33:15.164Z,101892.41
2023-04-16T00:36:16.119Z,101890.97
2023-04-16T00:39:17.158Z,101888.94
2023-04-16T00:42:20.230Z,101886.56
2023-04-16T00:45:21.203Z,101889.81
2023-04-16T00:48:22.141Z,101886.72
2023-04-16T00:51:24.184Z,101888.72
2023-04-16T00:54:25.208Z,101880.03
2023-04-16T00:57:28.188Z,101882.44
2023-04-16T01:00:29.142Z,101882.00
2023-04-16T01:03:30.429Z,101890.88
2023-04-16T01:06:31.183Z,101892.03
2023-04-16T01:09:32.198Z,101881.56
2023-04-16T01:12:33.139Z,101884.16
2023-04-16T01:15:34.198Z,101889.56
2023-04-16T01:18:35.139Z,101872.44
2023-04-16T01:21:36.183Z,101887.44
2023-04-16T01:24:37.108Z,101881.56
2023-04-16T01:27:38.313Z,101876.28
2023-04-16T01:30:39.136Z,101871.16
2023-04-16T01:34:09.158Z,101875.63
2023-04-16T01:37:10.131Z,101869.44
2023-04-16T01:40:11.166Z,101868.09
2023-04-16T01:43:12.134Z,101862.00
2023-04-16T01:46:25.180Z,101866.34
2023-04-16T01:49:26.131Z,101864.81
2023-04-16T01:52:27.143Z,101859.31
2023-04-16T01:55:28.151Z,101856.66
2023-04-16T01:58:29.143Z,101858.94
2023-04-16T02:01:30.193Z,101851.81
2023-04-16T02:04:31.154Z,101855.63
2023-04-16T02:07:32.115Z,101855.53
2023-04-16T02:10:33.166Z,101860.47
2023-04-16T02:13:35.114Z,101859.19
2023-04-16T02:16:36.195Z,101861.03
2023-04-16T02:19:44.104Z,101850.09
2023-04-16T02:22:46.180Z,101860.28
2023-04-16T02:25:46.298Z,101856.38
2023-04-16T02:28:40.311Z,101861.50
2023-04-16T02:31:41.165Z,101856.59
2023-04-16T02:34:42.189Z,101864.84
2023-04-16T02:37:43.131Z,101862.22
2023-04-16T02:40:44.136Z,101856.34
2023-04-16T02:43:45.129Z,101868.94
2023-04-16T02:46:46.169Z,101858.56
2023-04-16T02:49:47.130Z,101853.59
2023-04-16T02:52:48.157Z,101859.91
2023-04-16T02:55:49.129Z,101857.16
2023-04-16T02:58:50.164Z,101853.28
2023-04-16T03:01:51.230Z,101858.56
2023-04-16T03:04:52.160Z,101858.47
2023-04-16T03:07:53.134Z,101860.69
2023-04-16T03:10:54.174Z,101868.72
2023-04-16T03:13:55.110Z,101867.88
2023-04-16T03:16:56.155Z,101866.34
2023-04-16T03:19:57.111Z,101864.84
2023-04-16T03:22:59.137Z,101862.22
2023-04-16T03:26:00.127Z,101859.84
2023-04-16T03:29:01.304Z,101850.72
2023-04-16T03:32:02.118Z,101851.63
2023-04-16T03:35:04.150Z,101856.19
2023-04-16T03:38:05.101Z,101846.81
2023-04-16T03:41:06.157Z,101857.00
2023-04-16T03:44:07.093Z,101854.84
2023-04-16T03:47:08.173Z,101858.00
2023-04-16T03:50:09.141Z,101862.00
2023-04-16T03:53:10.185Z,101860.94
2023-04-16T03:56:11.134Z,101857.63
2023-04-16T03:59:12.166Z,101858.97
2023-04-16T04:02:13.292Z,101869.63
2023-04-16T04:05:14.164Z,101859.63
2023-04-16T04:08:15.119Z,101860.28
2023-04-16T04:11:16.157Z,101864.91
2023-04-16T04:14:17.125Z,101868.19
2023-04-16T04:17:18.171Z,101863.59
2023-04-16T04:20:19.099Z,101871.56
2023-04-16T04:23:21.151Z,101877.00
2023-04-16T04:26:22.209Z,101877.59
2023-04-16T04:29:25.434Z,101874.03
2023-04-16T04:32:26.163Z,101877.03
2023-04-16T04:35:27.121Z,101873.81
2023-04-16T04:38:29.114Z,101874.91
2023-04-16T04:41:31.134Z,101877.38
2023-04-16T04:44:32.135Z,101881.31
2023-04-16T04:47:33.170Z,101882.63
2023-04-16T04:50:34.098Z,101882.84
2023-04-16T04:53:35.222Z,101875.91
2023-04-16T04:56:37.064Z,101877.25
2023-04-16T04:59:38.143Z,101875.47
2023-04-16T05:02:40.338Z,101887.19
2023-04-16T05:05:41.176Z,101885.13
2023-04-16T05:08:42.093Z,101886.63
2023-04-16T05:11:43.220Z,101873.19
2023-04-16T05:14:44.122Z,101887.00
2023-04-16T05:17:45.168Z,101883.09
2023-04-16T05:20:46.104Z,101888.28
2023-04-16T05:23:48.141Z,101896.50
2023-04-16T05:26:49.095Z,101897.75
2023-04-16T05:29:50.332Z,101900.88
2023-04-16T05:32:53.205Z,101901.31
2023-04-16T05:35:54.122Z,101906.09
2023-04-16T05:38:55.097Z,101904.53
2023-04-16T05:41:56.118Z,101906.66
2023-04-16T05:44:57.117Z,101914.75
2023-04-16T05:47:58.171Z,101908.47
2023-04-16T05:50:59.089Z,101917.34
2023-04-16T05:54:01.135Z,101915.22
2023-04-16T05:57:02.393Z,101911.59
2023-04-16T06:00:03.131Z,101911.84
2023-04-16T06:03:06.272Z,101905.31
2023-04-16T06:06:07.133Z,101907.13
2023-04-16T06:09:08.381Z,101911.97
2023-04-16T06:12:09.131Z,101899.59
2023-04-16T06:15:10.133Z,101916.50
2023-04-16T06:18:11.185Z,101920.63
2023-04-16T06:21:12.076Z,101924.75
2023-04-16T06:24:13.121Z,101912.56
2023-04-16T06:27:14.072Z,101922.69
2023-04-16T06:30:15.186Z,101922.97
2023-04-16T06:33:16.079Z,101920.97
2023-04-16T06:36:18.141Z,101923.88
2023-04-16T06:39:19.077Z,101925.16
2023-04-16T06:42:20.134Z,101930.59
2023-04-16T06:45:21.078Z,101928.31
2023-04-16T06:48:22.112Z,101935.81
2023-04-16T06:51:23.093Z,101938.41
2023-04-16T06:54:24.104Z,101939.72
2023-04-16T06:57:27.081Z,101942.78
2023-04-16T07:00:28.123Z,101945.94
2023-04-16T07:03:29.274Z,101944.81
2023-04-16T07:06:30.092Z,101946.84
2023-04-16T07:09:31.092Z,101948.75
2023-04-16T07:12:34.129Z,101956.53
2023-04-16T07:15:35.096Z,101952.94
2023-04-16T07:18:36.121Z,101952.09
2023-04-16T07:21:37.075Z,101950.75
2023-04-16T07:24:38.084Z,101954.28
2023-04-16T07:27:39.083Z,101950.91
2023-04-16T07:30:41.201Z,101954.03
2023-04-16T07:33:42.100Z,101957.31
2023-04-16T07:36:43.149Z,101950.16
2023-04-16T07:39:44.084Z,101942.22
2023-04-16T07:42:45.110Z,101947.16
2023-04-16T07:45:46.078Z,101951.66
2023-04-16T07:48:47.124Z,101946.19
2023-04-16T07:51:48.105Z,101957.31
2023-04-16T07:54:49.136Z,101949.03
2023-04-16T07:57:50.107Z,101967.72
2023-04-16T08:00:51.204Z,101966.16
2023-04-16T08:03:52.308Z,101970.06
2023-04-16T08:06:53.112Z,101980.72
2023-04-16T08:10:05.075Z,101979.84
2023-04-16T08:13:06.109Z,101983.53
2023-04-16T08:16:07.121Z,101980.16
2023-04-16T08:19:08.225Z,101978.94
2023-04-16T08:22:09.085Z,101972.47
2023-04-16T08:25:12.101Z,101980.06
2023-04-16T08:28:13.067Z,101972.59
2023-04-16T08:31:14.235Z,101987.34
2023-04-16T08:34:15.070Z,101982.88
2023-04-16T08:37:16.323Z,101983.47
2023-04-16T08:40:17.063Z,101988.03
2023-04-16T08:43:19.090Z,101983.00
2023-04-16T08:46:20.119Z,101971.34
2023-04-16T08:49:21.121Z,101992.78
2023-04-16T08:52:23.067Z,101987.03
2023-04-16T08:55:27.098Z,101984.31
2023-04-16T08:58:28.077Z,101987.47
2023-04-16T09:01:38.125Z,101988.75
2023-04-16T09:04:42.133Z,101990.91
2023-04-16T09:07:43.104Z,101993.97
2023-04-16T09:10:44.049Z,101996.13
2023-04-16T09:13:45.118Z,101998.78
2023-04-16T09:16:47.329Z,102001.75
2023-04-16T09:19:48.116Z,102001.22
2023-04-16T09:22:49.070Z,102008.31
2023-04-16T09:25:52.146Z,102005.91
2023-04-16T09:28:51.465Z,102002.88
2023-04-16T09:31:45.130Z,102005.28
2023-04-16T09:34:46.066Z,101998.53
2023-04-16T09:37:47.400Z,102007.47
2023-04-16T09:40:48.045Z,102013.50
2023-04-16T09:43:49.140Z,102009.81
2023-04-16T09:46:51.045Z,102021.59
2023-04-16T09:49:55.102Z,102020.13
2023-04-16T09:52:58.061Z,102028.75
2023-04-16T09:55:59.087Z,102027.63
2023-04-16T09:59:00.104Z,102008.13
2023-04-16T10:02:14.864Z,102025.16
2023-04-16T10:05:18.056Z,102032.44
2023-04-16T10:08:26.130Z,102029.59
2023-04-16T10:11:27.091Z,102035.69
2023-04-16T10:14:28.131Z,102035.56
2023-04-16T10:17:29.073Z,102029.13
2023-04-16T10:20:33.104Z,102031.31
2023-04-16T10:23:35.098Z,102034.19
2023-04-16T10:26:38.106Z,102039.22
2023-04-16T10:29:36.159Z,102038.91
2023-04-16T10:32:35.133Z,102043.47
2023-04-16T10:35:36.039Z,102044.88
2023-04-16T10:38:42.252Z,102048.84
2023-04-16T10:41:45.031Z,102047.81
2023-04-16T10:44:46.081Z,102048.34
2023-04-16T10:47:53.094Z,102049.75
2023-04-16T10:50:54.093Z,102056.31
2023-04-16T10:53:55.076Z,102052.78
2023-04-16T10:56:58.210Z,102058.22
2023-04-16T10:59:59.043Z,102054.53
2023-04-16T11:03:00.180Z,102060.59
2023-04-16T11:06:02.084Z,102064.53
2023-04-16T11:09:04.215Z,102067.97
2023-04-16T11:12:06.041Z,102057.13
2023-04-16T11:15:08.133Z,102058.22
2023-04-16T11:18:10.074Z,102053.69
2023-04-16T11:21:11.092Z,102066.03
2023-04-16T11:24:12.056Z,102065.38
2023-04-16T11:27:13.077Z,102069.06
2023-04-16T11:30:16.146Z,102074.72
2023-04-16T11:33:10.146Z,102073.84
2023-04-16T11:36:11.049Z,102077.66
2023-04-16T11:39:15.310Z,102074.81
2023-04-16T11:42:16.070Z,102079.28
2023-04-16T11:45:17.066Z,102087.63
2023-04-16T11:48:18.096Z,102078.19
2023-04-16T11:51:19.173Z,102083.38
2023-04-16T11:54:20.217Z,102081.94
2023-04-16T11:57:21.108Z,102093.16
2023-04-16T12:00:24.537Z,102092.22
2023-04-16T12:03:26.228Z,102094.00
2023-04-16T12:06:27.062Z,102090.75
2023-04-16T12:09:41.245Z,102090.56
2023-04-16T12:12:43.079Z,102091.50
2023-04-16T12:15:57.118Z,102087.69
2023-04-16T12:19:12.219Z,102085.81
2023-04-16T12:22:14.070Z,102084.34
2023-04-16T12:25:18.054Z,102088.03
2023-04-16T12:28:19.139Z,102085.84
2023-04-16T12:31:13.231Z,102091.84
2023-04-16T12:34:10.083Z,102096.69
2023-04-16T12:37:20.010Z,102084.66
2023-04-16T12:40:21.304Z,102089.56
2023-04-16T12:43:23.033Z,102105.00
2023-04-16T12:46:24.164Z,102097.41
2023-04-16T12:49:25.032Z,102101.94
2023-04-16T12:52:26.069Z,102101.91
2023-04-16T12:55:27.068Z,102100.91
2023-04-16T12:58:28.072Z,102105.75
2023-04-16T13:01:29.128Z,102103.84
2023-04-16T13:04:32.076Z,102107.47
2023-04-16T13:07:40.056Z,102103.59
2023-04-16T13:10:41.071Z,102104.44
2023-04-16T13:13:42.281Z,102102.28
2023-04-16T13:16:45.123Z,102106.13
2023-04-16T13:19:46.165Z,102113.78
2023-04-16T13:22:47.091Z,102111.56
2023-04-16T13:25:50.179Z,102111.19
2023-04-16T13:28:51.161Z,102121.44
2023-04-16T13:31:52.088Z,102120.50
2023-04-16T13:34:53.069Z,102109.84
2023-04-16T13:37:54.031Z,102107.91
2023-04-16T13:40:55.431Z,102119.03
2023-04-16T13:43:56.020Z,102115.34
2023-04-16T13:46:57.109Z,102120.31
2023-04-16T13:49:58.130Z,102114.50
2023-04-16T13:52:59.262Z,102108.28
2023-04-16T13:56:00.117Z,102104.09
2023-04-16T13:59:01.066Z,102112.59
2023-04-16T14:02:02.062Z,102108.72
2023-04-16T14:05:03.080Z,102109.25
2023-04-16T14:08:04.020Z,102105.13
2023-04-16T14:11:05.090Z,102110.22
2023-04-16T14:14:08.017Z,102098.88
2023-04-16T14:17:10.075Z,102098.22
2023-04-16T14:20:12.026Z,102105.88
2023-04-16T14:23:13.092Z,102105.38
2023-04-16T14:26:14.021Z,102100.94
2023-04-16T14:29:15.082Z,102100.53
2023-04-16T14:32:16.011Z,102109.50
2023-04-16T14:35:17.205Z,102120.84
2023-04-16T14:38:18.050Z,102105.00
2023-04-16T14:41:19.327Z,102105.41
2023-04-16T14:44:20.051Z,102103.84
2023-04-16T14:47:21.049Z,102104.38
2023-04-16T14:50:22.036Z,102098.81
2023-04-16T14:53:23.072Z,102115.53
2023-04-16T14:56:24.034Z,102121.53
2023-04-16T14:59:25.058Z,102116.44
2023-04-16T15:02:26.216Z,102110.72
2023-04-16T15:05:27.119Z,102121.47
2023-04-16T15:08:28.009Z,102123.78
2023-04-16T15:11:29.057Z,102115.75
2023-04-16T15:14:30.025Z,102120.69
2023-04-16T15:17:32.164Z,102122.56
2023-04-16T15:20:33.052Z,102127.63
2023-04-16T15:23:34.078Z,102124.75
2023-04-16T15:26:36.056Z,102126.28
2023-04-16T15:29:37.274Z,102132.28
2023-04-16T15:32:38.047Z,102131.03
2023-04-16T15:35:39.076Z,102138.09
2023-04-16T15:38:40.066Z,102141.56
2023-04-16T15:41:59.902Z,102133.63
2023-04-16T15:45:02.020Z,102138.06
2023-04-16T15:48:03.174Z,102132.84
2023-04-16T15:51:04.052Z,102136.66
2023-04-16T15:54:05.069Z,102136.00
2023-04-16T15:57:06.060Z,102139.25
2023-04-16T16:00:07.629Z,102137.00
2023-04-16T16:03:09.386Z,102143.69
2023-04-16T16:06:11.048Z,102144.19
2023-04-16T16:09:12.156Z,102148.09
2023-04-16T16:12:13.064Z,102151.13
2023-04-16T16:15:14.040Z,102161.47
2023-04-16T16:18:15.207Z,102161.41
2023-04-16T16:21:16.167Z,102163.94
2023-04-16T16:24:17.092Z,102157.25
2023-04-16T16:27:18.029Z,102163.22
2023-04-16T16:30:19.128Z,102164.78
2023-04-16T16:33:13.655Z,102166.06
2023-04-16T16:36:07.043Z,102163.09
2023-04-16T16:39:08.178Z,102168.66
2023-04-16T16:42:09.249Z,102177.69
2023-04-16T16:45:12.071Z,102178.47
2023-04-16T16:48:13.138Z,102180.81
2023-04-16T16:51:33.993Z,102177.81
2023-04-16T16:54:21.106Z,102178.53
2023-04-16T16:57:22.034Z,102176.38
2023-04-16T17:00:23.054Z,102176.34
2023-04-16T17:03:24.143Z,102176.47
2023-04-16T17:06:25.111Z,102180.28
2023-04-16T17:09:25.997Z,102183.75
2023-04-16T17:12:27.028Z,102175.63
2023-04-16T17:15:28.076Z,102174.25
2023-04-16T17:18:29.203Z,102180.34
2023-04-16T17:21:29.989Z,102175.88
2023-04-16T17:24:31.081Z,102181.59
2023-04-16T17:27:32.081Z,102180.94
2023-04-16T17:30:59.077Z,102183.53
2023-04-16T17:33:53.204Z,102188.41
2023-04-16T17:36:47.067Z,102187.09
2023-04-16T17:39:48.200Z,102188.72
2023-04-16T17:42:49.431Z,102189.19
2023-04-16T17:45:50.101Z,102192.88
2023-04-16T17:48:51.055Z,102201.59
2023-04-16T17:51:51.960Z,102202.16
2023-04-16T17:54:53.052Z,102199.63
2023-04-16T17:57:53.962Z,102207.38
2023-04-16T18:00:55.059Z,102196.50
2023-04-16T18:03:56.211Z,102202.69
2023-04-16T18:06:57.045Z,102203.47
2023-04-16T18:09:57.995Z,102197.69
2023-04-16T18:12:59.069Z,102206.00
2023-04-16T18:16:00.089Z,102206.19
2023-04-16T18:19:01.057Z,102214.53
2023-04-16T18:22:02.039Z,102211.13
2023-04-16T18:25:03.490Z,102210.69
2023-04-16T18:28:04.983Z,102216.84
2023-04-16T18:31:11.140Z,102214.69
2023-04-16T18:34:12.556Z,102220.72
2023-04-16T18:37:13.212Z,102229.25
2023-04-16T18:40:16.977Z,102223.13
2023-04-16T18:43:18.308Z,102235.84
2023-04-16T18:46:19.074Z,102236.69
2023-04-16T18:49:20.005Z,102236.88
2023-04-16T18:52:21.065Z,102237.56
2023-04-16T18:55:22.066Z,102213.78
2023-04-16T18:58:22.982Z,102238.34
2023-04-16T19:01:24.050Z,102237.94
2023-04-16T19:04:25.049Z,102246.66
2023-04-16T19:07:26.069Z,102249.69
2023-04-16T19:10:27.058Z,102248.59
2023-04-16T19:13:28.062Z,102250.72
2023-04-16T19:16:29.015Z,102251.72
2023-04-16T19:19:30.056Z,102249.34
2023-04-16T19:22:30.970Z,102248.03
2023-04-16T19:25:34.021Z,102250.13
2023-04-16T19:28:34.972Z,102232.81
2023-04-16T19:32:04.144Z,102246.09
2023-04-16T19:34:59.153Z,102245.22
2023-04-16T19:37:53.012Z,102250.47
2023-04-16T19:40:54.016Z,102250.75
2023-04-16T19:43:55.173Z,102248.81
2023-04-16T19:46:56.035Z,102248.03
2023-04-16T19:49:59.134Z,102254.44
2023-04-16T19:53:00.002Z,102260.03
2023-04-16T19:56:01.056Z,102252.09
2023-04-16T19:59:01.999Z,102251.53
2023-04-16T20:02:03.126Z,102254.31
2023-04-16T20:05:03.972Z,102250.66
2023-04-16T20:08:05.028Z,102255.88
2023-04-16T20:11:07.009Z,102249.56
2023-04-16T20:14:08.004Z,102248.63
2023-04-16T20:17:12.570Z,102248.22
2023-04-16T20:20:17.019Z,102256.16
2023-04-16T20:23:17.958Z,102257.50
2023-04-16T20:26:19.207Z,102253.53
2023-04-16T20:29:20.014Z,102260.03
2023-04-16T20:32:46.112Z,102264.69
2023-04-16T20:35:40.179Z,102256.34
2023-04-16T20:38:36.049Z,102259.66
2023-04-16T20:41:36.986Z,102265.84
2023-04-16T20:44:47.231Z,102258.28
2023-04-16T20:47:50.019Z,102256.75
2023-04-16T20:50:52.100Z,102254.44
2023-04-16T20:53:52.953Z,102259.44
2023-04-16T20:56:54.026Z,102261.00
2023-04-16T20:59:54.947Z,102257.28
2023-04-16T21:02:56.196Z,102267.00
2023-04-16T21:06:01.027Z,102266.66
2023-04-16T21:09:02.027Z,102275.44
2023-04-16T21:12:02.964Z,102278.84
2023-04-16T21:15:04.036Z,102273.09
2023-04-16T21:18:05.039Z,102279.00
2023-04-16T21:21:06.094Z,102276.88
2023-04-16T21:24:06.962Z,102276.59
2023-04-16T21:27:08.020Z,102265.06
2023-04-16T21:30:08.969Z,102262.94
2023-04-16T21:33:10.048Z,102269.22
2023-04-16T21:36:10.986Z,102267.91
2023-04-16T21:39:12.277Z,102268.53
2023-04-16T21:42:12.975Z,102272.22
2023-04-16T21:45:14.245Z,102274.94
2023-04-16T21:48:15.076Z,102273.63
2023-04-16T21:51:16.997Z,102274.19
2023-04-16T21:54:18.027Z,102274.56
2023-04-16T21:57:19.062Z,102271.56
2023-04-16T22:00:20.988Z,102277.41
2023-04-16T22:03:24.120Z,102278.63
2023-04-16T22:06:24.958Z,102271.06
2023-04-16T22:09:26.002Z,102274.28
2023-04-16T22:12:26.984Z,102279.41
2023-04-16T22:15:28.017Z,102278.25
2023-04-16T22:18:28.978Z,102272.25
2023-04-16T22:21:30.011Z,102273.00
2023-04-16T22:24:31.152Z,102277.03
2023-04-16T22:27:31.994Z,102280.38
2023-04-16T22:30:32.969Z,102280.91
2023-04-16T22:33:33.993Z,102282.47
2023-04-16T22:36:34.963Z,102287.75
2023-04-16T22:39:36.237Z,102256.91
2023-04-16T22:42:37.019Z,102288.88
2023-04-16T22:45:38.204Z,102295.56
2023-04-16T22:48:38.955Z,102290.94
2023-04-16T22:51:40.201Z,102287.75
2023-04-16T22:54:43.954Z,102279.78
2023-04-16T22:57:44.984Z,102287.63
2023-04-16T23:00:45.961Z,102297.44
2023-04-16T23:03:47.084Z,102257.25
2023-04-16T23:06:48.978Z,102298.72
2023-04-16T23:09:49.992Z,102301.47
2023-04-16T23:12:56.974Z,102307.59
2023-04-16T23:15:58.194Z,102305.84
2023-04-16T23:18:58.960Z,102305.72
2023-04-16T23:21:59.969Z,102310.38
2023-04-16T23:25:00.960Z,102313.19
2023-04-16T23:28:02.080Z,102302.97
2023-04-16T23:31:07.427Z,102305.75
2023-04-16T23:34:08.003Z,102306.31
2023-04-16T23:37:08.971Z,102307.78
2023-04-16T23:40:11.019Z,102303.22
2023-04-16T23:43:11.938Z,102304.00
2023-04-16T23:46:13.289Z,102307.28
2023-04-16T23:49:14.074Z,102297.03
2023-04-16T23:52:14.991Z,102301.84
2023-04-16T23:55:15.923Z,102302.75
2023-04-16T23:58:17.053Z,102306.25
